Fairhope, AL

1:04 AM CDT on August 31, 2016 (GMT -0500)
Stone Creek | | Change Station
Active Advisory: Coastal Flood Advisory

Elev 98 ft 30.50 °N, 87.85 °W | Updated 9 minutes ago

Clear
Clear
76.1 °F
Feels Like 77 °F
N
1.7
Wind Variable Wind from ENE

Today
High -- | Low -- °F
--% Chance of Precip.
Yesterday
High -- | Low -- °F
Precip. -- in
Pressure 29.89 in
Visibility 10.0 miles
Clouds Clear
Heat Index 77 °F
Dew Point 70 °F
Humidity 82%
Rainfall 0.00 in
Snow Depth Not available.
6:27 AM 7:14 PM
Waning Crescent, 1% visible
METAR KCQF 310555Z AUTO 04004KT 10SM CLR 25/23 A2989 RMK AO2
Pressure 29.89 in
Visibility 10.0 miles
Clouds Clear
Heat Index 77 °F
Dew Point 70 °F
Humidity 82%
Rainfall 0.00 in
Snow Depth Not available.
6:27 AM 7:14 PM
Waning Crescent, 1% visible
METAR KCQF 310555Z AUTO 04004KT 10SM CLR 25/23 A2989 RMK AO2

10-Day Weather Forecast

Almanac

Astronomy

Aug. 31, 2016 Rise Set
Actual Time
Civil Twilight
Nautical Twilight
Astronomical Twilight
Moon
Length of Visible Light
Length of Day
Tomorrow will be .
, % of the Moon is Illuminated

Today's Extremes

State Highs State Lows

Community

WunderPhotos

Upload Photos

1,936,040 photos uploaded!

WunderBlog® & News

Nearby

Air Quality

  Air Quality AQ Index Pollutant
Not available.

Snow Depth

Station Depth Elevation

Earthquake Activity

City Distance Mag. Time & Date
Minimum magnitude displayed is 2.5.

Coastal Water Temperatures

Place Temperature

Stations

Nearby Weather Stations

Station Location Temp. Windchill Dew Point Humidity Wind Precip. Elev Updated Type
                   

Watches & Warnings

Coastal Flood Advisory
Issued: 5:12 PM CDT Aug. 30, 2016 – National Weather Service

... Coastal Flood Advisory in effect until 7 PM CDT Thursday...

The National Weather Service in Mobile has issued a coastal Flood
Advisory... which is in effect until 7 PM CDT Thursday.

* Coastal flooding... water levels 1 to 2 feet above ground level
possible especially during high tide.

* Timing... through 7 PM Thursday evening.

* Impacts... minor flooding possible for all inland bays and sounds
and along all Gulf beaches for Alabama.

Precautionary/preparedness actions...

A coastal Flood Advisory indicates that strong easterly winds and
tides above predicated levels will combine to generate flooding of
low areas along the shore.